Meadow Lake, Canada
Current Conditions -  °F | °C
As of 3:00 AM on Friday 31 Oct 2014 (Local Time) from CYOD Reporting Station
Overcast Overcast  
Wind Chill: 24°   Ceiling: 1500
Heat Index: 34°   Visibility: 15mi
Dew Point: 30°   Wind: 14mph
Humidity: 87%   Direction: 140°SE
Pressure: 29.95"   Gusts: 22mph
Location:  54.13°N, 108.45°W
Report Text: CYOD 310900Z 14012G19KT 15SM OVC015 01/M01 A2995 RMK SC8SLP170
Loading
Personal Weather Stations






























Interactive Weather Map
Tropical Storm Tracking
New forecast layout! Learn more

10-Day Weather Forecast

Advertisements
Track Severe Weather on mobile